sensor_id;sensor_type;location;lat;lon;timestamp;pressure;altitude;pressure_sealevel;temperature;humidity
75886;BME280;64561;44.018;10.144;2024-01-06T00:00:41;99906.19;;;13.96;100.00
75886;BME280;64561;44.018;10.144;2024-01-06T00:03:09;99899.28;;;13.98;100.00
75886;BME280;64561;44.018;10.144;2024-01-06T00:05:36;99899.28;;;13.98;100.00
75886;BME280;64561;44.018;10.144;2024-01-06T00:08:04;99908.72;;;13.98;100.00
75886;BME280;64561;44.018;10.144;2024-01-06T00:10:33;99902.72;;;13.95;100.00
75886;BME280;64561;44.018;10.144;2024-01-06T00:13:00;99904.38;;;14.07;100.00
75886;BME280;64561;44.018;10.144;2024-01-06T00:15:28;99904.38;;;14.10;100.00
75886;BME280;64561;44.018;10.144;2024-01-06T00:17:55;99914.66;;;14.10;100.00
75886;BME280;64561;44.018;10.144;2024-01-06T00:20:22;99901.78;;;14.13;100.00
75886;BME280;64561;44.018;10.144;2024-01-06T00:22:49;99900.97;;;14.04;100.00
75886;BME280;64561;44.018;10.144;2024-01-06T00:25:16;99907.00;;;13.98;100.00
75886;BME280;64561;44.018;10.144;2024-01-06T00:27:44;99894.16;;;13.97;100.00
75886;BME280;64561;44.018;10.144;2024-01-06T00:30:12;99895.06;;;13.91;100.00
75886;BME280;64561;44.018;10.144;2024-01-06T00:32:39;99889.06;;;13.83;100.00
75886;BME280;64561;44.018;10.144;2024-01-06T00:35:07;99880.53;;;13.79;100.00
75886;BME280;64561;44.018;10.144;2024-01-06T00:37:34;99888.25;;;13.79;100.00
75886;BME280;64561;44.018;10.144;2024-01-06T00:40:02;99889.94;;;13.80;100.00
75886;BME280;64561;44.018;10.144;2024-01-06T00:42:29;99876.28;;;13.70;100.00
75886;BME280;64561;44.018;10.144;2024-01-06T00:44:57;99864.31;;;13.63;100.00
75886;BME280;64561;44.018;10.144;2024-01-06T00:47:24;99866.91;;;13.60;100.00
75886;BME280;64561;44.018;10.144;2024-01-06T00:49:52;99863.50;;;13.55;100.00
75886;BME280;64561;44.018;10.144;2024-01-06T00:52:19;99862.59;;;13.59;100.00
75886;BME280;64561;44.018;10.144;2024-01-06T00:54:46;99870.34;;;13.58;100.00
75886;BME280;64561;44.018;10.144;2024-01-06T00:57:14;99866.91;;;13.57;100.00
75886;BME280;64561;44.018;10.144;2024-01-06T00:59:41;99860.91;;;13.57;100.00
75886;BME280;64561;44.018;10.144;2024-01-06T01:02:08;99849.78;;;13.53;100.00
75886;BME280;64561;44.018;10.144;2024-01-06T01:04:36;99858.34;;;13.55;100.00
75886;BME280;64561;44.018;10.144;2024-01-06T01:07:06;99841.25;;;13.51;100.00
75886;BME280;64561;44.018;10.144;2024-01-06T01:09:34;99850.63;;;13.54;100.00
75886;BME280;64561;44.018;10.144;2024-01-06T01:12:01;99854.03;;;13.66;100.00
75886;BME280;64561;44.018;10.144;2024-01-06T01:14:29;99857.44;;;13.65;100.00
75886;BME280;64561;44.018;10.144;2024-01-06T01:16:56;99856.59;;;13.66;100.00
75886;BME280;64561;44.018;10.144;2024-01-06T01:19:23;99850.59;;;13.66;100.00
75886;BME280;64561;44.018;10.144;2024-01-06T01:21:50;99858.31;;;13.66;100.00
75886;BME280;64561;44.018;10.144;2024-01-06T01:24:22;99850.59;;;13.64;100.00
75886;BME280;64561;44.018;10.144;2024-01-06T01:26:50;99847.19;;;13.59;100.00
75886;BME280;64561;44.018;10.144;2024-01-06T01:29:17;99845.47;;;13.61;100.00
75886;BME280;64561;44.018;10.144;2024-01-06T01:31:47;99851.50;;;13.56;100.00
75886;BME280;64561;44.018;10.144;2024-01-06T01:34:14;99850.63;;;13.55;100.00
75886;BME280;64561;44.018;10.144;2024-01-06T01:36:42;99850.63;;;13.58;100.00
75886;BME280;64561;44.018;10.144;2024-01-06T01:39:09;99849.78;;;13.50;100.00
75886;BME280;64561;44.018;10.144;2024-01-06T01:41:37;99854.09;;;13.46;100.00
75886;BME280;64561;44.018;10.144;2024-01-06T01:44:04;99846.41;;;13.48;100.00
75886;BME280;64561;44.018;10.144;2024-01-06T01:46:31;99836.13;;;13.40;100.00
75886;BME280;64561;44.018;10.144;2024-01-06T01:49:00;99855.78;;;13.52;100.00
75886;BME280;64561;44.018;10.144;2024-01-06T01:51:31;99850.69;;;13.46;100.00
75886;BME280;64561;44.018;10.144;2024-01-06T01:54:01;99854.97;;;13.41;100.00
75886;BME280;64561;44.018;10.144;2024-01-06T01:56:30;99844.75;;;13.33;100.00
75886;BME280;64561;44.018;10.144;2024-01-06T01:59:09;99852.44;;;13.39;100.00
75886;BME280;64561;44.018;10.144;2024-01-06T02:01:36;99854.13;;;13.37;100.00
75886;BME280;64561;44.018;10.144;2024-01-06T02:04:04;99860.97;;;13.35;100.00
75886;BME280;64561;44.018;10.144;2024-01-06T02:06:31;99862.69;;;13.39;100.00
75886;BME280;64561;44.018;10.144;2024-01-06T02:08:58;99859.28;;;13.34;100.00
75886;BME280;64561;44.018;10.144;2024-01-06T02:11:26;99853.31;;;13.21;100.00
75886;BME280;64561;44.018;10.144;2024-01-06T02:13:53;99856.72;;;13.20;100.00
75886;BME280;64561;44.018;10.144;2024-01-06T02:16:21;99854.16;;;13.19;100.00
75886;BME280;64561;44.018;10.144;2024-01-06T02:18:48;99861.88;;;13.26;100.00
75886;BME280;64561;44.018;10.144;2024-01-06T02:21:17;99849.88;;;13.22;100.00
75886;BME280;64561;44.018;10.144;2024-01-06T02:23:44;99855.00;;;13.32;100.00
75886;BME280;64561;44.018;10.144;2024-01-06T02:26:12;99861.88;;;13.26;100.00
75886;BME280;64561;44.018;10.144;2024-01-06T02:28:41;99853.31;;;13.17;100.00
75886;BME280;64561;44.018;10.144;2024-01-06T02:31:08;99849.88;;;13.16;100.00
75886;BME280;64561;44.018;10.144;2024-01-06T02:33:38;99832.78;;;12.98;100.00
75886;BME280;64561;44.018;10.144;2024-01-06T02:36:06;99850.78;;;13.06;100.00
75886;BME280;64561;44.018;10.144;2024-01-06T02:38:33;99843.91;;;13.05;100.00
75886;BME280;64561;44.018;10.144;2024-01-06T02:41:00;99840.50;;;13.04;100.00
75886;BME280;64561;44.018;10.144;2024-01-06T02:43:27;99837.91;;;13.04;100.00
75886;BME280;64561;44.018;10.144;2024-01-06T02:45:55;99832.81;;;13.03;100.00
75886;BME280;64561;44.018;10.144;2024-01-06T02:48:22;99826.78;;;13.02;100.00
75886;BME280;64561;44.018;10.144;2024-01-06T02:50:49;99825.09;;;13.01;100.00
75886;BME280;64561;44.018;10.144;2024-01-06T02:53:16;99819.94;;;13.01;100.00
75886;BME280;64561;44.018;10.144;2024-01-06T02:55:44;99811.41;;;13.01;100.00
75886;BME280;64561;44.018;10.144;2024-01-06T02:58:11;99803.69;;;12.98;100.00
75886;BME280;64561;44.018;10.144;2024-01-06T03:00:38;99802.84;;;12.99;100.00
75886;BME280;64561;44.018;10.144;2024-01-06T03:03:06;99788.28;;;13.04;100.00
75886;BME280;64561;44.018;10.144;2024-01-06T03:05:33;99785.72;;;13.04;100.00
75886;BME280;64561;44.018;10.144;2024-01-06T03:08:01;99778.00;;;13.02;100.00
75886;BME280;64561;44.018;10.144;2024-01-06T03:10:28;99783.13;;;13.07;100.00
75886;BME280;64561;44.018;10.144;2024-01-06T03:12:55;99778.84;;;13.12;100.00
75886;BME280;64561;44.018;10.144;2024-01-06T03:15:22;99778.84;;;13.09;100.00
75886;BME280;64561;44.018;10.144;2024-01-06T03:17:50;99777.13;;;13.08;100.00
75886;BME280;64561;44.018;10.144;2024-01-06T03:20:17;99773.75;;;13.03;100.00
75886;BME280;64561;44.018;10.144;2024-01-06T03:22:44;99781.44;;;13.03;100.00
75886;BME280;64561;44.018;10.144;2024-01-06T03:25:12;99786.56;;;13.06;100.00
75886;BME280;64561;44.018;10.144;2024-01-06T03:27:39;99783.13;;;13.05;100.00
75886;BME280;64561;44.018;10.144;2024-01-06T03:30:06;99782.28;;;13.03;100.00
75886;BME280;64561;44.018;10.144;2024-01-06T03:32:36;99783.13;;;12.99;100.00
75886;BME280;64561;44.018;10.144;2024-01-06T03:35:05;99791.72;;;13.00;100.00
75886;BME280;64561;44.018;10.144;2024-01-06T03:37:33;99778.03;;;12.95;100.00
75886;BME280;64561;44.018;10.144;2024-01-06T03:40:00;99788.28;;;12.96;100.00
75886;BME280;64561;44.018;10.144;2024-01-06T03:42:30;99785.72;;;12.96;100.00
75886;BME280;64561;44.018;10.144;2024-01-06T03:44:57;99779.72;;;12.96;100.00
75886;BME280;64561;44.018;10.144;2024-01-06T03:47:25;99772.91;;;12.95;100.00
75886;BME280;64561;44.018;10.144;2024-01-06T03:49:52;99767.75;;;12.95;100.00
75886;BME280;64561;44.018;10.144;2024-01-06T03:52:19;99770.31;;;12.96;100.00
75886;BME280;64561;44.018;10.144;2024-01-06T03:54:47;99772.88;;;12.96;100.00
75886;BME280;64561;44.018;10.144;2024-01-06T03:57:14;99777.16;;;12.96;100.00
75886;BME280;64561;44.018;10.144;2024-01-06T03:59:42;99766.91;;;12.93;100.00
75886;BME280;64561;44.018;10.144;2024-01-06T04:02:09;99766.06;;;12.94;100.00
75886;BME280;64561;44.018;10.144;2024-01-06T04:04:36;99760.06;;;12.87;100.00
75886;BME280;64561;44.018;10.144;2024-01-06T04:07:03;99760.06;;;12.84;100.00
75886;BME280;64561;44.018;10.144;2024-01-06T04:09:30;99758.38;;;12.88;100.00
75886;BME280;64561;44.018;10.144;2024-01-06T04:11:58;99758.38;;;12.85;100.00
75886;BME280;64561;44.018;10.144;2024-01-06T04:14:28;99739.59;;;12.73;100.00
75886;BME280;64561;44.018;10.144;2024-01-06T04:16:56;99749.84;;;12.72;100.00
75886;BME280;64561;44.018;10.144;2024-01-06T04:19:24;99739.59;;;12.67;100.00
75886;BME280;64561;44.018;10.144;2024-01-06T04:21:51;99741.31;;;12.59;100.00
75886;BME280;64561;44.018;10.144;2024-01-06T04:24:18;99760.97;;;12.71;100.00
75886;BME280;64561;44.018;10.144;2024-01-06T04:26:46;99756.69;;;12.71;100.00
75886;BME280;64561;44.018;10.144;2024-01-06T04:29:13;99749.84;;;12.66;100.00
75886;BME280;64561;44.018;10.144;2024-01-06T04:31:41;99749.03;;;12.57;100.00
75886;BME280;64561;44.018;10.144;2024-01-06T04:34:09;99743.91;;;12.53;100.00
75886;BME280;64561;44.018;10.144;2024-01-06T04:36:36;99752.47;;;12.52;100.00
75886;BME280;64561;44.018;10.144;2024-01-06T04:39:03;99743.91;;;12.44;100.00
75886;BME280;64561;44.018;10.144;2024-01-06T04:41:31;99740.50;;;12.42;100.00
75886;BME280;64561;44.018;10.144;2024-01-06T04:43:58;99741.34;;;12.45;100.00
75886;BME280;64561;44.018;10.144;2024-01-06T04:46:25;99742.22;;;12.49;100.00
75886;BME280;64561;44.018;10.144;2024-01-06T04:48:52;99746.44;;;12.51;100.00
75886;BME280;64561;44.018;10.144;2024-01-06T04:51:20;99736.19;;;12.45;100.00
75886;BME280;64561;44.018;10.144;2024-01-06T04:53:47;99735.38;;;12.43;100.00
75886;BME280;64561;44.018;10.144;2024-01-06T04:56:15;99738.78;;;12.50;100.00
75886;BME280;64561;44.018;10.144;2024-01-06T04:58:42;99736.19;;;12.51;100.00
75886;BME280;64561;44.018;10.144;2024-01-06T05:01:09;99737.06;;;12.52;100.00
75886;BME280;64561;44.018;10.144;2024-01-06T05:03:37;99735.34;;;12.52;100.00
75886;BME280;64561;44.018;10.144;2024-01-06T05:06:04;99736.19;;;12.56;100.00
75886;BME280;64561;44.018;10.144;2024-01-06T05:08:31;99721.69;;;12.52;100.00
75886;BME280;64561;44.018;10.144;2024-01-06T05:10:59;99724.22;;;12.50;100.00
75886;BME280;64561;44.018;10.144;2024-01-06T05:13:27;99714.81;;;12.51;100.00
75886;BME280;64561;44.018;10.144;2024-01-06T05:15:54;99709.69;;;12.48;100.00
75886;BME280;64561;44.018;10.144;2024-01-06T05:18:24;99699.44;;;12.46;100.00
75886;BME280;64561;44.018;10.144;2024-01-06T05:20:51;99697.72;;;12.39;100.00
75886;BME280;64561;44.018;10.144;2024-01-06T05:23:18;99699.44;;;12.39;100.00
75886;BME280;64561;44.018;10.144;2024-01-06T05:25:45;99701.19;;;12.37;100.00
75886;BME280;64561;44.018;10.144;2024-01-06T05:28:13;99701.19;;;12.37;100.00
75886;BME280;64561;44.018;10.144;2024-01-06T05:30:40;99694.34;;;12.32;100.00
75886;BME280;64561;44.018;10.144;2024-01-06T05:33:12;99698.63;;;12.29;100.00
75886;BME280;64561;44.018;10.144;2024-01-06T05:35:41;99697.75;;;12.30;100.00
75886;BME280;64561;44.018;10.144;2024-01-06T05:38:08;99707.16;;;12.29;100.00
75886;BME280;64561;44.018;10.144;2024-01-06T05:40:35;99698.63;;;12.15;100.00
75886;BME280;64561;44.018;10.144;2024-01-06T05:43:03;99686.69;;;12.09;100.00
75886;BME280;64561;44.018;10.144;2024-01-06T05:45:30;99684.97;;;12.07;100.00
75886;BME280;64561;44.018;10.144;2024-01-06T05:47:57;99684.97;;;12.05;100.00
75886;BME280;64561;44.018;10.144;2024-01-06T05:50:25;99689.25;;;11.99;100.00
75886;BME280;64561;44.018;10.144;2024-01-06T05:52:52;99675.56;;;11.87;100.00
75886;BME280;64561;44.018;10.144;2024-01-06T05:55:20;99670.41;;;11.75;100.00
75886;BME280;64561;44.018;10.144;2024-01-06T05:58:00;99661.00;;;11.63;100.00
75886;BME280;64561;44.018;10.144;2024-01-06T06:00:28;99674.69;;;11.78;100.00
75886;BME280;64561;44.018;10.144;2024-01-06T06:16:59;99671.28;;;11.65;100.00
75886;BME280;64561;44.018;10.144;2024-01-06T06:19:27;99678.09;;;11.57;100.00
75886;BME280;64561;44.018;10.144;2024-01-06T06:21:54;99677.22;;;11.45;100.00
75886;BME280;64561;44.018;10.144;2024-01-06T06:24:22;99677.19;;;11.33;100.00
75886;BME280;64561;44.018;10.144;2024-01-06T06:26:55;99658.38;;;11.25;100.00
75886;BME280;64561;44.018;10.144;2024-01-06T06:29:22;99671.25;;;11.37;100.00
75886;BME280;64561;44.018;10.144;2024-01-06T06:31:50;99669.53;;;11.38;100.00
75886;BME280;64561;44.018;10.144;2024-01-06T06:34:21;99670.38;;;11.38;100.00
75886;BME280;64561;44.018;10.144;2024-01-06T06:36:51;99663.56;;;11.37;100.00
75886;BME280;64561;44.018;10.144;2024-01-06T06:39:18;99675.47;;;11.37;100.00
75886;BME280;64561;44.018;10.144;2024-01-06T06:41:49;99661.00;;;11.37;100.00
75886;BME280;64561;44.018;10.144;2024-01-06T06:44:19;99672.09;;;11.47;100.00
75886;BME280;64561;44.018;10.144;2024-01-06T06:46:47;99681.50;;;11.51;100.00
75886;BME280;64561;44.018;10.144;2024-01-06T06:49:15;99676.38;;;11.50;100.00
75886;BME280;64561;44.018;10.144;2024-01-06T06:51:42;99675.50;;;11.46;100.00
75886;BME280;64561;44.018;10.144;2024-01-06T06:54:16;99664.41;;;11.38;100.00
75886;BME280;64561;44.018;10.144;2024-01-06T06:56:43;99675.50;;;11.41;100.00
75886;BME280;64561;44.018;10.144;2024-01-06T06:59:14;99671.19;;;11.25;100.00
75886;BME280;64561;44.018;10.144;2024-01-06T07:01:41;99681.47;;;11.30;100.00
75886;BME280;64561;44.018;10.144;2024-01-06T07:04:08;99679.78;;;11.35;100.00
75886;BME280;64561;44.018;10.144;2024-01-06T07:06:36;99693.44;;;11.49;100.00
75886;BME280;64561;44.018;10.144;2024-01-06T07:09:04;99682.34;;;11.49;100.00
75886;BME280;64561;44.018;10.144;2024-01-06T07:11:32;99673.78;;;11.45;100.00
75886;BME280;64561;44.018;10.144;2024-01-06T07:13:59;99674.66;;;11.49;100.00
75886;BME280;64561;44.018;10.144;2024-01-06T07:16:27;99711.41;;;11.66;100.00
75886;BME280;64561;44.018;10.144;2024-01-06T07:18:55;99689.19;;;11.47;100.00
75886;BME280;64561;44.018;10.144;2024-01-06T07:21:23;99712.25;;;11.62;100.00
75886;BME280;64561;44.018;10.144;2024-01-06T07:23:51;99700.28;;;11.53;100.00
75886;BME280;64561;44.018;10.144;2024-01-06T07:26:22;99699.44;;;11.47;100.00
75886;BME280;64561;44.018;10.144;2024-01-06T07:28:50;99703.66;;;11.46;100.00
75886;BME280;64561;44.018;10.144;2024-01-06T07:31:18;99730.16;;;11.54;100.00
75886;BME280;64561;44.018;10.144;2024-01-06T07:33:45;99736.13;;;11.49;100.00
75886;BME280;64561;44.018;10.144;2024-01-06T07:36:13;99724.16;;;11.38;100.00
75886;BME280;64561;44.018;10.144;2024-01-06T07:38:41;99714.78;;;11.45;100.00
75886;BME280;64561;44.018;10.144;2024-01-06T07:41:08;99709.69;;;11.47;100.00
75886;BME280;64561;44.018;10.144;2024-01-06T07:43:36;99730.19;;;11.59;100.00
75886;BME280;64561;44.018;10.144;2024-01-06T07:46:03;99748.16;;;11.68;100.00
75886;BME280;64561;44.018;10.144;2024-01-06T07:48:31;99746.41;;;11.67;100.00
75886;BME280;64561;44.018;10.144;2024-01-06T07:50:59;99729.34;;;11.58;100.00
75886;BME280;64561;44.018;10.144;2024-01-06T07:53:27;99743.88;;;11.68;100.00
75886;BME280;64561;44.018;10.144;2024-01-06T07:55:54;99745.56;;;11.65;100.00
75886;BME280;64561;44.018;10.144;2024-01-06T07:58:22;99724.22;;;11.61;100.00
75886;BME280;64561;44.018;10.144;2024-01-06T08:00:49;99759.28;;;11.82;100.00
75886;BME280;64561;44.018;10.144;2024-01-06T08:03:17;99746.47;;;11.79;100.00
75886;BME280;64561;44.018;10.144;2024-01-06T08:05:44;99745.56;;;11.76;100.00
75886;BME280;64561;44.018;10.144;2024-01-06T08:08:12;99736.19;;;11.68;100.00
75886;BME280;64561;44.018;10.144;2024-01-06T08:10:44;99761.88;;;11.85;100.00
75886;BME280;64561;44.018;10.144;2024-01-06T08:13:12;99729.34;;;11.63;100.00
75886;BME280;64561;44.018;10.144;2024-01-06T08:15:40;99726.78;;;11.66;100.00
75886;BME280;64561;44.018;10.144;2024-01-06T08:18:07;99760.97;;;11.82;100.00
75886;BME280;64561;44.018;10.144;2024-01-06T08:20:35;99764.44;;;11.88;100.00
75886;BME280;64561;44.018;10.144;2024-01-06T08:23:02;99737.06;;;11.77;100.00
75886;BME280;64561;44.018;10.144;2024-01-06T08:25:30;99737.91;;;11.82;100.00
75886;BME280;64561;44.018;10.144;2024-01-06T08:27:57;99740.50;;;11.86;100.00
75886;BME280;64561;44.018;10.144;2024-01-06T08:30:25;99748.19;;;11.97;100.00
75886;BME280;64561;44.018;10.144;2024-01-06T08:32:53;99737.09;;;11.94;100.00
75886;BME280;64561;44.018;10.144;2024-01-06T08:35:20;99733.69;;;11.95;100.00
75886;BME280;64561;44.018;10.144;2024-01-06T08:37:48;99731.13;;;11.95;100.00
75886;BME280;64561;44.018;10.144;2024-01-06T08:40:15;99764.47;;;12.13;100.00
75886;BME280;64561;44.018;10.144;2024-01-06T08:42:45;99758.47;;;12.17;100.00
75886;BME280;64561;44.018;10.144;2024-01-06T08:45:13;99738.81;;;12.04;100.00
75886;BME280;64561;44.018;10.144;2024-01-06T08:47:40;99751.63;;;12.11;100.00
75886;BME280;64561;44.018;10.144;2024-01-06T08:50:08;99749.06;;;12.01;100.00
75886;BME280;64561;44.018;10.144;2024-01-06T08:52:36;99755.03;;;12.09;100.00
75886;BME280;64561;44.018;10.144;2024-01-06T08:55:03;99731.09;;;11.96;100.00
75886;BME280;64561;44.018;10.144;2024-01-06T08:57:31;99749.06;;;12.04;100.00
75886;BME280;64561;44.018;10.144;2024-01-06T08:59:58;99757.59;;;12.12;100.00
75886;BME280;64561;44.018;10.144;2024-01-06T09:02:26;99729.41;;;12.01;100.00
75886;BME280;64561;44.018;10.144;2024-01-06T09:04:53;99729.41;;;12.07;100.00
75886;BME280;64561;44.018;10.144;2024-01-06T09:07:20;99753.34;;;12.26;100.00
75886;BME280;64561;44.018;10.144;2024-01-06T09:09:48;99744.78;;;12.21;100.00
75886;BME280;64561;44.018;10.144;2024-01-06T09:12:15;99753.31;;;12.29;100.00
75886;BME280;64561;44.018;10.144;2024-01-06T09:14:43;99749.06;;;12.34;100.00
75886;BME280;64561;44.018;10.144;2024-01-06T09:17:10;99760.16;;;12.41;100.00
75886;BME280;64561;44.018;10.144;2024-01-06T09:19:38;99733.66;;;12.27;100.00
75886;BME280;64561;44.018;10.144;2024-01-06T09:22:05;99766.13;;;12.45;100.00
75886;BME280;64561;44.018;10.144;2024-01-06T09:24:33;99763.59;;;12.43;100.00
75886;BME280;64561;44.018;10.144;2024-01-06T09:27:00;99756.72;;;12.42;100.00
75886;BME280;64561;44.018;10.144;2024-01-06T09:29:28;99764.44;;;12.42;100.00
75886;BME280;64561;44.018;10.144;2024-01-06T09:31:55;99749.06;;;12.34;100.00
75886;BME280;64561;44.018;10.144;2024-01-06T09:34:22;99760.19;;;12.40;100.00
75886;BME280;64561;44.018;10.144;2024-01-06T09:36:49;99766.16;;;12.46;100.00
75886;BME280;64561;44.018;10.144;2024-01-06T09:39:17;99767.00;;;12.48;100.00
75886;BME280;64561;44.018;10.144;2024-01-06T09:41:44;99769.56;;;12.48;100.00
75886;BME280;64561;44.018;10.144;2024-01-06T09:44:11;99773.81;;;12.54;100.00
75886;BME280;64561;44.018;10.144;2024-01-06T09:46:43;99761.00;;;12.48;100.00
75886;BME280;64561;44.018;10.144;2024-01-06T09:49:10;99756.72;;;12.48;100.00
75886;BME280;64561;44.018;10.144;2024-01-06T09:51:39;99769.56;;;12.59;100.00
75886;BME280;64561;44.018;10.144;2024-01-06T09:54:12;99759.28;;;12.51;100.00
75886;BME280;64561;44.018;10.144;2024-01-06T09:56:39;99776.38;;;12.60;100.00
75886;BME280;64561;44.018;10.144;2024-01-06T09:59:07;99760.16;;;12.49;100.00
75886;BME280;64561;44.018;10.144;2024-01-06T10:01:34;99778.13;;;12.55;100.00
75886;BME280;64561;44.018;10.144;2024-01-06T10:04:01;99759.28;;;12.48;100.00
75886;BME280;64561;44.018;10.144;2024-01-06T10:06:30;99767.88;;;12.49;100.00
75886;BME280;64561;44.018;10.144;2024-01-06T10:08:57;99762.72;;;12.47;100.00
75886;BME280;64561;44.018;10.144;2024-01-06T10:11:25;99762.72;;;12.52;100.00
75886;BME280;64561;44.018;10.144;2024-01-06T10:13:53;99746.47;;;12.47;100.00
75886;BME280;64561;44.018;10.144;2024-01-06T10:16:24;99749.06;;;12.44;100.00
75886;BME280;64561;44.018;10.144;2024-01-06T10:18:54;99746.47;;;12.33;100.00
75886;BME280;64561;44.018;10.144;2024-01-06T10:21:22;99737.94;;;12.29;100.00
75886;BME280;64561;44.018;10.144;2024-01-06T10:23:50;99749.06;;;12.41;100.00
75886;BME280;64561;44.018;10.144;2024-01-06T10:26:18;99746.47;;;12.44;100.00
75886;BME280;64561;44.018;10.144;2024-01-06T10:28:48;99754.19;;;12.47;100.00
75886;BME280;64561;44.018;10.144;2024-01-06T10:31:17;99750.72;;;12.54;100.00
75886;BME280;64561;44.018;10.144;2024-01-06T10:33:45;99747.31;;;12.55;100.00
75886;BME280;64561;44.018;10.144;2024-01-06T10:36:12;99743.88;;;12.59;100.00
75886;BME280;64561;44.018;10.144;2024-01-06T10:38:41;99746.47;;;12.61;100.00
75886;BME280;64561;44.018;10.144;2024-01-06T10:41:09;99743.88;;;12.62;100.00
75886;BME280;64561;44.018;10.144;2024-01-06T10:43:38;99736.19;;;12.62;100.00
75886;BME280;64561;44.018;10.144;2024-01-06T10:46:08;99739.63;;;12.61;100.00
75886;BME280;64561;44.018;10.144;2024-01-06T10:48:39;99738.75;;;12.62;100.00
75886;BME280;64561;44.018;10.144;2024-01-06T10:51:12;99735.31;;;12.60;100.00
75886;BME280;64561;44.018;10.144;2024-01-06T10:53:41;99733.63;;;12.54;100.00
75886;BME280;64561;44.018;10.144;2024-01-06T10:56:10;99739.63;;;12.56;100.00
75886;BME280;64561;44.018;10.144;2024-01-06T10:58:45;99722.53;;;12.55;100.00
75886;BME280;64561;44.018;10.144;2024-01-06T11:01:15;99725.94;;;12.57;100.00
75886;BME280;64561;44.018;10.144;2024-01-06T11:03:48;99717.38;;;12.58;100.00
75886;BME280;64561;44.018;10.144;2024-01-06T11:06:19;99711.38;;;12.61;100.00
75886;BME280;64561;44.018;10.144;2024-01-06T11:08:51;99706.22;;;12.63;100.00
75886;BME280;64561;44.018;10.144;2024-01-06T11:11:20;99708.78;;;12.66;100.00
75886;BME280;64561;44.018;10.144;2024-01-06T11:13:48;99696.81;;;12.63;100.00
75886;BME280;64561;44.018;10.144;2024-01-06T11:16:37;99698.53;;;12.69;100.00
75886;BME280;64561;44.018;10.144;2024-01-06T11:22:21;99701.06;;;12.72;100.00
75886;BME280;64561;44.018;10.144;2024-01-06T11:24:52;99687.38;;;12.71;100.00
75886;BME280;64561;44.018;10.144;2024-01-06T11:27:22;99688.22;;;12.75;100.00
75886;BME280;64561;44.018;10.144;2024-01-06T11:29:55;99688.25;;;12.73;100.00
75886;BME280;64561;44.018;10.144;2024-01-06T11:32:35;99683.97;;;12.74;100.00
75886;BME280;64561;44.018;10.144;2024-01-06T11:35:12;99679.69;;;12.74;100.00
75886;BME280;64561;44.018;10.144;2024-01-06T11:45:28;99670.28;;;12.73;100.00
75886;BME280;64561;44.018;10.144;2024-01-06T11:47:59;99665.13;;;12.72;100.00
75886;BME280;64561;44.018;10.144;2024-01-06T11:50:33;99662.59;;;12.70;100.00
75886;BME280;64561;44.018;10.144;2024-01-06T11:53:01;99663.44;;;12.69;100.00
75886;BME280;64561;44.018;10.144;2024-01-06T11:55:29;99656.63;;;12.65;100.00
75886;BME280;64561;44.018;10.144;2024-01-06T11:58:00;99652.34;;;12.63;100.00
75886;BME280;64561;44.018;10.144;2024-01-06T12:00:33;99661.78;;;12.64;100.00
75886;BME280;64561;44.018;10.144;2024-01-06T12:03:02;99653.19;;;12.60;100.00
75886;BME280;64561;44.018;10.144;2024-01-06T12:05:29;99646.38;;;12.56;100.00
75886;BME280;64561;44.018;10.144;2024-01-06T12:10:27;99641.28;;;12.47;100.00
75886;BME280;64561;44.018;10.144;2024-01-06T12:13:05;99635.31;;;12.46;100.00
75886;BME280;64561;44.018;10.144;2024-01-06T12:15:36;99635.31;;;12.46;100.00
75886;BME280;64561;44.018;10.144;2024-01-06T12:18:07;99632.72;;;12.48;100.00
75886;BME280;64561;44.018;10.144;2024-01-06T12:20:35;99624.19;;;12.49;100.00
75886;BME280;64561;44.018;10.144;2024-01-06T12:23:02;99616.47;;;12.50;100.00
75886;BME280;64561;44.018;10.144;2024-01-06T12:25:34;99616.47;;;12.55;100.00
75886;BME280;64561;44.018;10.144;2024-01-06T12:28:07;99607.03;;;12.58;100.00
75886;BME280;64561;44.018;10.144;2024-01-06T12:30:35;99594.19;;;12.57;100.00
75886;BME280;64561;44.018;10.144;2024-01-06T12:33:04;99599.31;;;12.60;100.00
75886;BME280;64561;44.018;10.144;2024-01-06T12:35:31;99598.47;;;12.61;100.00
75886;BME280;64561;44.018;10.144;2024-01-06T12:38:02;99601.03;;;12.64;100.00
75886;BME280;64561;44.018;10.144;2024-01-06T12:40:29;99596.72;;;12.63;100.00
75886;BME280;64561;44.018;10.144;2024-01-06T12:42:56;99597.59;;;12.67;100.00
75886;BME280;64561;44.018;10.144;2024-01-06T12:45:24;99596.72;;;12.66;100.00
75886;BME280;64561;44.018;10.144;2024-01-06T12:47:51;99589.03;;;12.66;100.00
75886;BME280;64561;44.018;10.144;2024-01-06T12:50:19;99589.03;;;12.63;100.00
75886;BME280;64561;44.018;10.144;2024-01-06T12:52:49;99585.63;;;12.59;100.00
75886;BME280;64561;44.018;10.144;2024-01-06T12:55:16;99583.94;;;12.55;100.00
75886;BME280;64561;44.018;10.144;2024-01-06T12:57:44;99579.66;;;12.56;100.00
75886;BME280;64561;44.018;10.144;2024-01-06T13:00:12;99582.22;;;12.59;100.00
75886;BME280;64561;44.018;10.144;2024-01-06T13:02:40;99576.25;;;12.58;100.00
75886;BME280;64561;44.018;10.144;2024-01-06T13:05:07;99569.41;;;12.56;100.00
75886;BME280;64561;44.018;10.144;2024-01-06T13:07:36;99573.66;;;12.57;100.00
75886;BME280;64561;44.018;10.144;2024-01-06T13:10:04;99577.09;;;12.61;100.00
75886;BME280;64561;44.018;10.144;2024-01-06T13:12:32;99570.25;;;12.59;100.00